CNE weather

Fremont County Airport
CaƱon City, Colorado, United States

Public forecast

Using degrees Fahrenheit for public forecast. Weather courtesy of forecast.io.

Current aviation weather report (METAR) for Fremont County Airport

Retrieved UTC (0 seconds ago):

Closest aviation forecast (TAF) to Fremont County Airport

Closest forecast is Butts AAF (Fort Carson) Air Field, 22.2 nm (41.2 km) NE. Retrieved 2019/11/15 21:09 UTC (3 hours ago):

TAF TAF KFCS 152101Z 1521/1703 VRB06KT 9999 BKN180 OVC200 QNH3012INS BECMG 1603/1604 VRB06KT 9999 FEW180 SCT200 QNH3012INS BECMG 1606/1607 VRB06KT 9999 SKC QNH3008INS BECMG 1611/1612 VRB06KT 9999 BKN200 QNH3002INS BECMG 1621/1622 32012KT 9999 BKN200 QNH3000INS TX18/1521Z TN00/1612Z